Time;durP1;ratioP1;P1;durP2;ratioP2;P2;SDS_P1;SDS_P2;PMS_P1;PMS_P2;Temp;Humidity;BMP_temperature;BMP_pressure;BME280_temperature;BME280_humidity;BME280_pressure;Samples;Min_cycle;Max_cycle;Signal;HPM_P1;HPM_P2
2022/11/07 00:02:24;;;;;;;1.60;1.40;;;11.00;98.00;;;;;;5073063;28;20460;-66
2022/11/07 00:04:51;;;;;;;1.43;1.30;;;11.00;98.00;;;;;;5072890;28;20507;-66
2022/11/07 00:07:18;;;;;;;1.40;1.40;;;11.10;98.00;;;;;;5073027;28;20947;-66
2022/11/07 00:09:46;;;;;;;2.23;1.50;;;11.20;98.00;;;;;;5073140;28;20459;-66
2022/11/07 00:12:14;;;;;;;2.57;1.67;;;11.10;98.00;;;;;;5072745;28;20453;-67
2022/11/07 00:14:41;;;;;;;1.73;1.20;;;11.10;98.00;;;;;;5069647;28;20820;-66
2022/11/07 00:17:09;;;;;;;1.97;1.43;;;11.10;98.00;;;;;;5072895;28;20479;-66
2022/11/07 00:19:36;;;;;;;1.40;1.20;;;11.20;98.00;;;;;;5072764;28;20467;-66
2022/11/07 00:22:03;;;;;;;1.60;1.40;;;11.20;98.00;;;;;;5072406;28;20491;-67
2022/11/07 00:24:31;;;;;;;2.00;1.20;;;11.20;98.00;;;;;;5072679;28;20512;-66
2022/11/07 00:26:58;;;;;;;1.40;1.13;;;11.10;98.00;;;;;;5072720;28;20463;-66
2022/11/07 00:29:25;;;;;;;1.57;1.20;;;11.20;98.00;;;;;;5072609;28;20457;-66
2022/11/07 00:31:53;;;;;;;1.40;1.30;;;11.20;98.00;;;;;;5072610;28;20475;-66
2022/11/07 00:34:21;;;;;;;2.00;1.53;;;11.20;98.00;;;;;;5054804;28;20464;-66
2022/11/07 00:36:48;;;;;;;2.90;1.73;;;11.10;98.00;;;;;;5072760;28;20523;-66
2022/11/07 00:39:15;;;;;;;1.60;1.27;;;11.10;98.00;;;;;;5072411;28;20453;-66
2022/11/07 00:41:48;;;;;;;1.70;1.30;;;11.10;98.00;;;;;;5072681;28;20491;-66
2022/11/07 00:44:15;;;;;;;2.37;1.50;;;11.20;98.00;;;;;;5055610;28;20502;-67
2022/11/07 00:46:42;;;;;;;1.40;1.27;;;11.20;98.00;;;;;;5072292;28;20466;-66
2022/11/07 00:49:09;;;;;;;2.63;1.20;;;11.20;98.00;;;;;;5072489;28;20479;-66
2022/11/07 00:51:48;;;;;;;1.30;1.23;;;11.20;98.00;;;;;;5072116;28;20453;-67
2022/11/07 00:54:15;;;;;;;1.77;1.50;;;11.20;98.00;;;;;;5054943;28;20452;-66
2022/11/07 00:56:42;;;;;;;1.50;1.20;;;11.20;98.00;;;;;;5072119;28;20460;-66
2022/11/07 00:59:09;;;;;;;1.30;1.30;;;11.20;98.00;;;;;;5054402;28;20452;-67
2022/11/07 01:01:36;;;;;;;1.70;1.50;;;11.30;98.00;;;;;;5071966;28;20480;-67
2022/11/07 01:07:02;;;;;;;1.57;1.20;;;11.30;98.00;;;;;;4990391;28;20527;-67
2022/11/07 01:09:30;;;;;;;1.60;1.40;;;11.30;98.00;;;;;;5052611;28;20451;-66
2022/11/07 01:11:57;;;;;;;3.50;1.60;;;11.30;98.00;;;;;;5072058;28;20460;-66
2022/11/07 01:14:25;;;;;;;1.30;1.00;;;11.40;98.00;;;;;;5071970;28;20448;-66
2022/11/07 01:16:52;;;;;;;1.20;1.00;;;11.40;98.00;;;;;;5070617;28;20495;-66
2022/11/07 01:19:19;;;;;;;1.73;1.20;;;11.50;98.00;;;;;;5072004;28;20881;-66
2022/11/07 01:21:47;;;;;;;1.53;1.20;;;11.50;98.00;;;;;;5071853;28;20847;-66
2022/11/07 01:24:17;;;;;;;1.20;1.10;;;11.50;98.00;;;;;;5071963;28;20475;-66
2022/11/07 01:26:46;;;;;;;1.40;1.13;;;11.50;98.00;;;;;;5071940;28;20462;-66
2022/11/07 01:29:14;;;;;;;1.30;1.10;;;11.60;98.00;;;;;;5054737;28;20478;-66
2022/11/07 01:31:42;;;;;;;1.33;1.20;;;11.60;98.00;;;;;;5072016;28;20455;-66
2022/11/07 01:34:09;;;;;;;1.77;1.40;;;11.60;98.00;;;;;;5075801;28;20465;-66
2022/11/07 01:36:36;;;;;;;1.53;1.30;;;11.60;98.00;;;;;;5058203;28;20461;-66
2022/11/07 01:39:04;;;;;;;1.40;1.10;;;11.60;98.00;;;;;;5076217;28;20901;-66
2022/11/07 01:41:34;;;;;;;1.20;1.03;;;11.60;98.00;;;;;;5075469;28;20997;-66
2022/11/07 01:44:04;;;;;;;1.83;1.37;;;11.60;98.00;;;;;;5075803;28;20455;-66
2022/11/07 01:46:33;;;;;;;3.00;1.60;;;11.60;98.00;;;;;;5075436;28;20528;-66
2022/11/07 01:49:08;;;;;;;1.33;1.03;;;11.50;98.00;;;;;;5075570;28;20459;-66
2022/11/07 01:51:41;;;;;;;2.90;1.20;;;11.60;98.00;;;;;;5075385;28;20452;-66
2022/11/07 01:54:18;;;;;;;1.37;1.20;;;11.60;98.00;;;;;;5075585;28;20835;-66
2022/11/07 01:56:46;;;;;;;1.60;1.60;;;11.50;98.00;;;;;;5075399;28;20458;-66
2022/11/07 01:59:20;;;;;;;1.20;1.10;;;11.50;98.00;;;;;;5075500;28;20454;-66
2022/11/07 02:01:47;;;;;;;1.50;1.20;;;11.50;98.00;;;;;;5075112;28;20860;-66
2022/11/07 02:04:16;;;;;;;2.03;1.33;;;11.50;98.00;;;;;;5075369;28;20967;-67
2022/11/07 02:06:46;;;;;;;1.80;1.47;;;11.50;98.00;;;;;;5058080;28;20477;-66
2022/11/07 02:09:14;;;;;;;1.20;1.10;;;11.60;98.00;;;;;;5075299;28;20509;-66
2022/11/07 02:11:41;;;;;;;1.77;1.20;;;11.60;98.00;;;;;;5075325;28;20459;-66
2022/11/07 02:14:14;;;;;;;2.00;1.53;;;11.60;98.00;;;;;;5057633;28;20455;-66
2022/11/07 02:16:42;;;;;;;2.03;1.43;;;11.60;98.00;;;;;;5075245;28;20459;-66
2022/11/07 02:19:19;;;;;;;3.20;1.50;;;11.60;98.00;;;;;;5057688;28;20496;-66
2022/11/07 02:21:52;;;;;;;2.20;1.40;;;11.60;98.00;;;;;;5075074;28;20487;-67
2022/11/07 02:24:30;;;;;;;2.30;1.30;;;11.70;98.00;;;;;;5075529;28;20461;-66
2022/11/07 02:27:00;;;;;;;1.57;1.30;;;11.70;98.00;;;;;;5058028;28;20458;-66
2022/11/07 02:29:28;;;;;;;1.37;1.13;;;11.70;98.00;;;;;;5075087;28;20453;-67
2022/11/07 02:32:02;;;;;;;2.80;1.37;;;11.70;98.00;;;;;;5074899;28;20836;-66
2022/11/07 02:34:29;;;;;;;1.20;1.10;;;11.70;98.00;;;;;;5074486;28;20468;-67
2022/11/07 02:36:57;;;;;;;1.80;1.23;;;11.70;98.00;;;;;;5074790;28;20597;-66
2022/11/07 02:39:33;;;;;;;1.30;1.10;;;11.70;98.00;;;;;;5074441;28;20510;-66
2022/11/07 02:42:02;;;;;;;1.60;1.27;;;11.80;98.00;;;;;;5074704;28;21163;-67
2022/11/07 02:44:30;;;;;;;3.40;1.30;;;11.80;98.00;;;;;;5074189;28;20469;-66
2022/11/07 02:46:58;;;;;;;2.07;1.37;;;11.90;98.00;;;;;;5074705;28;20585;-66
2022/11/07 02:49:25;;;;;;;2.90;1.10;;;11.90;98.00;;;;;;5074297;28;20854;-67
2022/11/07 02:51:52;;;;;;;1.40;1.17;;;11.90;98.00;;;;;;5074564;28;20447;-66
2022/11/07 02:54:19;;;;;;;1.43;1.30;;;11.90;98.00;;;;;;5074447;28;20459;-66
2022/11/07 02:56:49;;;;;;;1.30;1.10;;;11.90;98.00;;;;;;5074212;28;20466;-66
2022/11/07 02:59:17;;;;;;;2.13;1.17;;;11.90;98.00;;;;;;5074395;28;20491;-66
2022/11/07 03:01:44;;;;;;;3.87;1.43;;;11.80;98.00;;;;;;5074057;28;20506;-66
2022/11/07 03:04:11;;;;;;;2.27;1.33;;;11.80;98.00;;;;;;5074321;28;20828;-66
2022/11/07 03:06:38;;;;;;;1.97;1.20;;;11.80;98.00;;;;;;5056506;28;20493;-66
2022/11/07 03:09:05;;;;;;;1.70;1.30;;;11.90;98.00;;;;;;5074291;28;20751;-67
2022/11/07 03:11:32;;;;;;;1.40;1.20;;;12.00;98.00;;;;;;5074098;28;20456;-66
2022/11/07 03:14:01;;;;;;;2.00;1.40;;;12.00;98.00;;;;;;5074353;28;20479;-66
2022/11/07 03:16:28;;;;;;;1.90;1.20;;;12.10;98.00;;;;;;5056623;28;20521;-66
2022/11/07 03:18:55;;;;;;;2.20;1.70;;;12.10;98.00;;;;;;5074234;28;20469;-66
2022/11/07 03:21:22;;;;;;;1.40;1.10;;;12.10;98.00;;;;;;5074250;28;20537;-66
2022/11/07 03:23:49;;;;;;;1.60;1.30;;;12.20;98.00;;;;;;5073810;28;20458;-66
2022/11/07 03:26:16;;;;;;;1.20;1.20;;;12.20;98.00;;;;;;5056247;28;20465;-66
2022/11/07 03:28:43;;;;;;;1.30;1.17;;;12.20;98.00;;;;;;5056189;28;20450;-66
2022/11/07 03:31:12;;;;;;;1.70;1.23;;;12.20;98.00;;;;;;5056020;28;20936;-67
2022/11/07 03:33:39;;;;;;;1.20;1.10;;;12.20;98.00;;;;;;5073347;28;20468;-66
2022/11/07 03:36:07;;;;;;;5.83;1.43;;;12.20;98.00;;;;;;5073909;28;20459;-67
2022/11/07 03:38:34;;;;;;;1.30;1.10;;;12.20;98.00;;;;;;5073401;28;20546;-67
2022/11/07 03:41:01;;;;;;;1.70;1.20;;;12.20;98.00;;;;;;5055770;28;20535;-66
2022/11/07 03:43:28;;;;;;;2.33;1.40;;;12.10;98.00;;;;;;5073426;28;20461;-66
2022/11/07 03:45:55;;;;;;;1.33;1.13;;;12.20;98.00;;;;;;5055527;28;21006;-66
2022/11/07 03:48:24;;;;;;;1.43;1.40;;;12.20;98.00;;;;;;5073453;28;20450;-66
2022/11/07 03:50:51;;;;;;;1.43;1.13;;;12.20;98.00;;;;;;5073070;28;20478;-66
2022/11/07 03:53:18;;;;;;;1.70;1.27;;;12.20;98.00;;;;;;5073426;28;20816;-66
2022/11/07 03:55:47;;;;;;;1.70;1.40;;;12.30;98.00;;;;;;5054672;28;20822;-66
2022/11/07 03:58:14;;;;;;;1.40;1.27;;;12.30;98.00;;;;;;5073117;28;20470;-66
2022/11/07 04:00:41;;;;;;;1.60;1.40;;;12.30;98.00;;;;;;5073116;28;20452;-66
2022/11/07 04:03:08;;;;;;;1.50;1.30;;;12.30;98.00;;;;;;5073429;28;20499;-66
2022/11/07 04:05:36;;;;;;;1.53;1.40;;;12.20;98.00;;;;;;5073097;28;20467;-66
2022/11/07 04:08:04;;;;;;;1.50;1.23;;;12.30;98.00;;;;;;5073149;28;20467;-66
2022/11/07 04:10:31;;;;;;;2.37;1.30;;;12.30;98.00;;;;;;5073299;28;20546;-66
2022/11/07 04:18:29;;;;;;;1.57;1.30;;;12.20;98.00;;;;;;5073020;28;20454;-66
2022/11/07 04:20:58;;;;;;;1.50;1.20;;;12.20;98.00;;;;;;5072664;28;20872;-66
2022/11/07 04:23:25;;;;;;;1.90;1.40;;;12.20;98.00;;;;;;5073001;28;20459;-67
2022/11/07 04:28:36;;;;;;;1.30;1.30;;;12.20;98.00;;;;;;5073008;28;20455;-66
2022/11/07 04:31:03;;;;;;;2.90;1.47;;;12.30;98.00;;;;;;5072581;28;20930;-66
2022/11/07 04:33:30;;;;;;;3.10;1.20;;;12.40;98.00;;;;;;5072430;28;20810;-66
2022/11/07 04:35:59;;;;;;;1.80;1.40;;;12.40;98.00;;;;;;5072402;28;20459;-66
2022/11/07 04:38:26;;;;;;;1.53;1.30;;;12.40;98.00;;;;;;5072421;28;20804;-66
2022/11/07 04:40:54;;;;;;;1.40;1.20;;;12.40;98.00;;;;;;5054723;28;20450;-66
2022/11/07 04:43:21;;;;;;;1.77;1.50;;;12.40;98.00;;;;;;5072538;28;20904;-66
2022/11/07 04:45:49;;;;;;;1.57;1.27;;;12.40;98.00;;;;;;5072333;28;20463;-66
2022/11/07 04:48:16;;;;;;;1.43;1.10;;;12.40;98.00;;;;;;5054560;28;20518;-66
2022/11/07 04:50:44;;;;;;;1.70;1.53;;;12.40;98.00;;;;;;5071869;28;20465;-66
2022/11/07 04:53:15;;;;;;;1.30;1.10;;;12.40;98.00;;;;;;5072473;28;20445;-66
2022/11/07 04:55:44;;;;;;;1.30;1.10;;;12.30;98.00;;;;;;5072052;28;20486;-66
2022/11/07 04:58:12;;;;;;;1.47;1.17;;;12.30;98.00;;;;;;5072267;28;20472;-66
2022/11/07 05:00:39;;;;;;;1.40;1.20;;;12.30;98.00;;;;;;5072127;28;20461;-67
2022/11/07 05:03:06;;;;;;;1.40;1.20;;;12.40;98.00;;;;;;5072309;28;20488;-67
2022/11/07 05:05:33;;;;;;;1.80;1.37;;;12.30;98.00;;;;;;5072051;28;20454;-66
2022/11/07 05:08:00;;;;;;;1.67;1.27;;;12.20;98.00;;;;;;5072182;28;20445;-66
2022/11/07 05:10:29;;;;;;;2.00;1.57;;;12.20;98.00;;;;;;5071787;28;20510;-66
2022/11/07 05:12:57;;;;;;;1.83;1.20;;;12.10;98.00;;;;;;5071517;28;20457;-67
2022/11/07 05:15:24;;;;;;;1.50;1.17;;;12.10;98.00;;;;;;5071231;28;20458;-66
2022/11/07 05:17:51;;;;;;;2.60;1.43;;;12.10;98.00;;;;;;5071405;28;20545;-66
2022/11/07 05:20:28;;;;;;;1.30;1.30;;;12.10;98.00;;;;;;5071695;28;20870;-66
2022/11/07 05:23:16;;;;;;;4.07;1.60;;;12.10;98.00;;;;;;5071679;28;21005;-67
2022/11/07 05:25:47;;;;;;;2.53;1.37;;;12.10;98.00;;;;;;5071636;28;20455;-66
2022/11/07 05:28:16;;;;;;;1.20;1.10;;;12.10;98.00;;;;;;5071597;28;20460;-66
2022/11/07 05:30:44;;;;;;;3.50;1.50;;;12.10;98.00;;;;;;5071665;28;20457;-67
2022/11/07 05:33:13;;;;;;;1.77;1.30;;;12.10;98.00;;;;;;5071721;28;20520;-66
2022/11/07 05:35:40;;;;;;;2.30;1.47;;;12.10;98.00;;;;;;5071649;28;20880;-66
2022/11/07 05:38:07;;;;;;;1.40;1.40;;;12.20;98.00;;;;;;5053871;28;20460;-66
2022/11/07 05:40:36;;;;;;;1.90;1.27;;;12.20;98.00;;;;;;5071743;28;20786;-66
2022/11/07 05:43:07;;;;;;;1.20;1.00;;;12.20;98.00;;;;;;5071630;28;20492;-67
2022/11/07 05:45:36;;;;;;;3.70;1.40;;;12.10;98.00;;;;;;5071842;28;20461;-66
2022/11/07 05:48:05;;;;;;;1.63;1.30;;;12.10;98.00;;;;;;5071825;28;20459;-66
2022/11/07 05:50:33;;;;;;;1.80;1.50;;;11.90;98.00;;;;;;5071617;28;20456;-66
2022/11/07 05:53:00;;;;;;;2.43;1.30;;;12.00;98.00;;;;;;5071804;28;21084;-66
2022/11/07 05:55:28;;;;;;;1.40;1.30;;;11.90;98.00;;;;;;5071552;28;20452;-67
2022/11/07 05:57:55;;;;;;;1.30;1.20;;;11.90;98.00;;;;;;5071708;28;20467;-66
2022/11/07 06:00:24;;;;;;;1.20;1.10;;;11.90;98.00;;;;;;5071647;28;20555;-66
2022/11/07 06:03:00;;;;;;;2.17;1.40;;;11.90;98.00;;;;;;5071520;28;20483;-66
2022/11/07 06:05:27;;;;;;;1.97;1.20;;;11.80;98.00;;;;;;5071441;28;20480;-66
2022/11/07 06:07:54;;;;;;;3.77;1.50;;;11.80;98.00;;;;;;5071571;28;20967;-66
2022/11/07 06:10:25;;;;;;;1.43;1.20;;;11.80;98.00;;;;;;5071463;28;20851;-66
2022/11/07 06:12:58;;;;;;;2.90;1.40;;;11.80;98.00;;;;;;5071405;28;20868;-66
2022/11/07 06:15:36;;;;;;;3.77;1.50;;;11.80;98.00;;;;;;5071334;28;20571;-66
2022/11/07 06:18:05;;;;;;;2.00;1.40;;;11.90;98.00;;;;;;5071164;28;20453;-67
2022/11/07 06:20:33;;;;;;;1.93;1.30;;;11.80;98.00;;;;;;5074819;28;20446;-66
2022/11/07 06:23:01;;;;;;;1.60;1.30;;;11.80;98.00;;;;;;5074917;28;20489;-66
2022/11/07 06:25:29;;;;;;;1.50;1.20;;;11.90;98.00;;;;;;5074830;28;20514;-66
2022/11/07 06:27:59;;;;;;;1.67;1.33;;;11.80;98.00;;;;;;5074888;28;20455;-67
2022/11/07 06:30:28;;;;;;;3.20;2.00;;;11.70;98.00;;;;;;5074717;28;20458;-67
2022/11/07 06:33:00;;;;;;;3.10;2.07;;;11.80;98.00;;;;;;5074503;28;20548;-66
2022/11/07 06:35:27;;;;;;;1.80;1.40;;;11.80;98.00;;;;;;5057551;28;20825;-66
2022/11/07 06:37:54;;;;;;;3.83;2.70;;;12.00;98.00;;;;;;5074999;28;20798;-67
2022/11/07 06:40:21;;;;;;;3.53;1.90;;;12.00;98.00;;;;;;5074734;28;20460;-66
2022/11/07 06:42:48;;;;;;;2.47;1.90;;;12.10;98.00;;;;;;5074599;28;20558;-66
2022/11/07 06:45:15;;;;;;;2.70;1.37;;;12.10;98.00;;;;;;5074958;28;21140;-67
2022/11/07 06:47:44;;;;;;;3.87;1.73;;;12.10;98.00;;;;;;5074730;28;20462;-67
2022/11/07 06:50:11;;;;;;;1.40;1.30;;;12.20;98.00;;;;;;5074797;28;20462;-66
2022/11/07 06:52:38;;;;;;;1.40;1.23;;;12.30;98.00;;;;;;5074721;28;20463;-66
2022/11/07 06:55:07;;;;;;;3.47;1.27;;;12.40;98.00;;;;;;5074790;28;20829;-67
2022/11/07 06:57:35;;;;;;;1.60;1.33;;;12.50;98.00;;;;;;5074702;28;20462;-66
2022/11/07 07:00:04;;;;;;;2.57;1.37;;;12.60;98.00;;;;;;5074424;28;20478;-66
2022/11/07 07:02:32;;;;;;;2.77;1.70;;;12.50;98.00;;;;;;5074303;28;20848;-66
2022/11/07 07:05:00;;;;;;;2.60;1.60;;;12.50;98.00;;;;;;5074219;28;20934;-66
2022/11/07 07:07:29;;;;;;;2.20;1.53;;;12.60;98.00;;;;;;5074135;28;20864;-66
2022/11/07 07:09:56;;;;;;;2.23;1.30;;;12.60;98.00;;;;;;5073887;28;20446;-66
2022/11/07 07:12:25;;;;;;;1.70;1.30;;;12.60;98.00;;;;;;5074179;28;20464;-66
2022/11/07 07:14:52;;;;;;;2.17;1.47;;;12.70;98.00;;;;;;5073775;28;20454;-66
2022/11/07 07:17:19;;;;;;;2.13;1.30;;;12.70;98.00;;;;;;5074114;28;20479;-67
2022/11/07 07:19:47;;;;;;;3.43;1.40;;;12.70;98.00;;;;;;5073831;28;20468;-66
2022/11/07 07:22:15;;;;;;;3.00;1.40;;;12.80;98.00;;;;;;5055304;28;20479;-66
2022/11/07 07:24:42;;;;;;;2.13;1.60;;;12.80;98.00;;;;;;5073253;28;20512;-67
2022/11/07 07:27:10;;;;;;;1.40;1.23;;;12.90;98.00;;;;;;5055431;28;20908;-67
2022/11/07 07:29:37;;;;;;;2.17;1.50;;;13.00;98.00;;;;;;5072386;28;20463;-66
2022/11/07 07:32:04;;;;;;;1.20;1.00;;;13.00;98.00;;;;;;5068992;28;20991;-66
2022/11/07 07:34:31;;;;;;;2.80;1.57;;;13.10;98.00;;;;;;5032893;28;20821;-66
2022/11/07 07:36:58;;;;;;;2.47;1.40;;;13.10;98.00;;;;;;5032967;28;20453;-66
2022/11/07 07:39:27;;;;;;;4.70;1.40;;;13.20;98.00;;;;;;5032819;28;20516;-67
2022/11/07 07:41:54;;;;;;;1.40;1.30;;;13.30;98.00;;;;;;5032948;28;20960;-63
2022/11/07 07:44:21;;;;;;;1.80;1.47;;;13.30;98.00;;;;;;5032705;28;20523;-63
2022/11/07 07:46:48;;;;;;;1.50;1.27;;;13.30;98.00;;;;;;5032897;28;20461;-63
2022/11/07 07:49:15;;;;;;;2.27;1.40;;;13.30;98.00;;;;;;5032968;28;20687;-63
2022/11/07 07:51:43;;;;;;;1.50;1.20;;;13.30;98.00;;;;;;5032780;28;20463;-63
2022/11/07 07:54:11;;;;;;;1.53;1.40;;;13.30;98.00;;;;;;5015653;28;20550;-63
2022/11/07 07:56:39;;;;;;;2.40;1.50;;;13.30;98.00;;;;;;5032527;28;20461;-63
2022/11/07 07:59:07;;;;;;;1.40;1.30;;;13.30;98.00;;;;;;5032708;28;20447;-63
2022/11/07 08:01:34;;;;;;;1.40;1.10;;;13.30;98.00;;;;;;5032483;28;20980;-63
2022/11/07 08:04:01;;;;;;;1.70;1.30;;;13.40;98.00;;;;;;5032333;28;20485;-63
2022/11/07 08:06:29;;;;;;;1.33;1.20;;;13.40;98.00;;;;;;5032337;28;20532;-63
2022/11/07 08:08:57;;;;;;;1.63;1.20;;;13.40;98.00;;;;;;5032523;28;20465;-63
2022/11/07 08:11:24;;;;;;;4.93;1.63;;;13.50;98.00;;;;;;5032583;28;20627;-63
2022/11/07 08:13:52;;;;;;;3.13;1.23;;;13.50;98.00;;;;;;5032232;28;20461;-63
2022/11/07 08:16:20;;;;;;;1.40;1.27;;;13.50;98.00;;;;;;5032255;28;20466;-63
2022/11/07 08:18:47;;;;;;;1.67;1.40;;;13.60;98.00;;;;;;5032082;28;20457;-63
2022/11/07 08:21:14;;;;;;;8.80;1.40;;;13.60;98.00;;;;;;5032113;28;20473;-63
2022/11/07 08:23:41;;;;;;;1.50;1.20;;;13.70;98.00;;;;;;5032107;28;20543;-63
2022/11/07 08:26:08;;;;;;;1.70;1.20;;;13.70;98.00;;;;;;5031764;28;20473;-63
2022/11/07 08:28:36;;;;;;;1.50;1.30;;;13.70;98.00;;;;;;5032014;28;20507;-64
2022/11/07 08:31:08;;;;;;;1.20;1.10;;;13.80;98.00;;;;;;5031648;28;20459;-63
2022/11/07 08:33:36;;;;;;;3.80;1.53;;;13.80;98.00;;;;;;5043955;28;20537;-63
2022/11/07 08:36:05;;;;;;;3.17;1.50;;;13.80;98.00;;;;;;5051727;28;20461;-63
2022/11/07 08:38:33;;;;;;;2.87;1.67;;;13.80;98.00;;;;;;5051934;28;20465;-63
2022/11/07 08:41:01;;;;;;;1.97;1.30;;;13.80;98.00;;;;;;5051340;28;20458;-63
2022/11/07 08:43:28;;;;;;;1.70;1.47;;;13.80;98.00;;;;;;5051342;28;20492;-63
2022/11/07 08:45:55;;;;;;;1.40;1.30;;;13.90;98.00;;;;;;5033834;28;20522;-63
2022/11/07 08:48:24;;;;;;;2.07;1.10;;;13.80;98.00;;;;;;5048109;28;20463;-63
2022/11/07 08:50:55;;;;;;;2.13;1.73;;;13.80;98.00;;;;;;5044757;28;20868;-63
2022/11/07 08:53:24;;;;;;;1.50;1.17;;;13.90;98.00;;;;;;5049119;28;20486;-64
2022/11/07 08:55:51;;;;;;;2.00;1.20;;;13.90;98.00;;;;;;5049861;28;20453;-62
2022/11/07 08:58:18;;;;;;;1.33;1.20;;;14.30;98.00;;;;;;5048182;28;20457;-68
2022/11/07 09:00:46;;;;;;;2.20;1.70;;;14.60;98.00;;;;;;5048532;28;21040;-65
2022/11/07 09:03:13;;;;;;;1.60;1.30;;;15.00;98.00;;;;;;5048826;28;20482;-65
2022/11/07 09:05:42;;;;;;;1.50;1.40;;;15.40;98.00;;;;;;5047848;28;20886;-63
2022/11/07 09:08:09;;;;;;;1.50;1.30;;;15.40;98.00;;;;;;5048473;28;20956;-63
2022/11/07 09:10:36;;;;;;;2.03;1.60;;;15.40;98.00;;;;;;5030745;28;20952;-63
2022/11/07 09:13:03;;;;;;;4.50;1.70;;;15.30;98.00;;;;;;5048485;28;20868;-64
2022/11/07 09:15:30;;;;;;;1.30;1.20;;;15.10;98.00;;;;;;5048566;28;20512;-61
2022/11/07 09:18:03;;;;;;;1.40;1.30;;;15.00;98.00;;;;;;5048619;28;20511;-61
2022/11/07 09:20:30;;;;;;;2.37;1.23;;;14.80;98.00;;;;;;5048451;28;20967;-61
2022/11/07 09:22:59;;;;;;;3.27;1.50;;;14.80;98.00;;;;;;5048523;28;20554;-61
2022/11/07 09:25:27;;;;;;;1.57;1.33;;;14.70;98.00;;;;;;5048191;28;20510;-61
2022/11/07 09:27:54;;;;;;;2.90;1.53;;;14.60;98.00;;;;;;5048326;28;20633;-61
2022/11/07 09:30:22;;;;;;;2.10;1.30;;;14.50;98.00;;;;;;5048378;28;20463;-61
2022/11/07 09:32:49;;;;;;;1.50;1.30;;;14.50;98.00;;;;;;5048273;28;20518;-62
2022/11/07 09:35:16;;;;;;;2.07;1.50;;;14.50;98.00;;;;;;5014246;28;20442;-61
2022/11/07 09:37:43;;;;;;;1.50;1.30;;;14.50;98.00;;;;;;5048427;28;20471;-61
2022/11/07 09:40:24;;;;;;;2.63;1.60;;;14.50;98.00;;;;;;5048352;28;20521;-61
2022/11/07 09:43:02;;;;;;;1.80;1.50;;;14.50;98.00;;;;;;5048461;28;20578;-62
2022/11/07 09:45:38;;;;;;;2.03;1.40;;;14.70;98.00;;;;;;5048792;28;20976;-61
2022/11/07 09:48:07;;;;;;;1.43;1.30;;;14.80;98.00;;;;;;5048763;28;20965;-63
2022/11/07 09:50:38;;;;;;;2.33;1.50;;;14.80;98.00;;;;;;5047460;28;20464;-62
2022/11/07 09:53:10;;;;;;;1.63;1.30;;;14.70;98.00;;;;;;5048802;28;20471;-63
2022/11/07 09:55:46;;;;;;;1.50;1.20;;;14.70;98.00;;;;;;5051360;28;20828;-61
2022/11/07 09:58:20;;;;;;;1.70;1.70;;;14.70;98.00;;;;;;5044823;28;20866;-61
2022/11/07 10:00:47;;;;;;;1.80;1.30;;;14.80;98.00;;;;;;5052442;28;20867;-61
2022/11/07 10:03:14;;;;;;;1.30;1.20;;;14.70;98.00;;;;;;5051694;28;20558;-61
2022/11/07 10:05:50;;;;;;;1.97;1.30;;;14.70;98.00;;;;;;5051729;28;20460;-61
2022/11/07 10:08:25;;;;;;;3.00;1.50;;;14.70;98.00;;;;;;5052296;28;20512;-61
2022/11/07 10:10:58;;;;;;;7.83;1.33;;;14.70;98.00;;;;;;5051868;28;20454;-61
2022/11/07 10:13:57;;;;;;;1.83;1.30;;;14.80;98.00;;;;;;5051768;28;20463;-61
2022/11/07 10:16:36;;;;;;;3.13;1.67;;;14.90;98.00;;;;;;5051530;28;20543;-62
2022/11/07 10:19:20;;;;;;;3.40;1.87;;;14.90;98.00;;;;;;5043409;28;20837;-63
2022/11/07 10:21:57;;;;;;;1.60;1.33;;;15.00;98.00;;;;;;5052190;28;20900;-62
2022/11/07 10:24:38;;;;;;;3.20;1.50;;;15.00;98.00;;;;;;5051448;28;21014;-62
2022/11/07 10:27:10;;;;;;;1.53;1.37;;;15.00;98.00;;;;;;5053174;28;20463;-61
2022/11/07 10:29:43;;;;;;;3.07;1.80;;;15.10;98.00;;;;;;5051471;28;20860;-62
2022/11/07 10:32:27;;;;;;;2.93;1.60;;;15.10;98.00;;;;;;5051264;28;20471;-61
2022/11/07 10:35:05;;;;;;;1.43;1.40;;;15.10;98.00;;;;;;5051513;28;20469;-61
2022/11/07 10:37:32;;;;;;;1.50;1.30;;;15.10;98.00;;;;;;5051953;28;20959;-63
2022/11/07 10:39:59;;;;;;;2.13;1.40;;;15.20;98.00;;;;;;5051900;28;20853;-62
2022/11/07 10:42:31;;;;;;;4.40;1.73;;;15.10;98.00;;;;;;5051655;28;20958;-63
2022/11/07 10:44:59;;;;;;;1.90;1.33;;;15.00;98.00;;;;;;5051575;28;20502;-62
2022/11/07 10:47:27;;;;;;;3.80;1.27;;;15.10;98.00;;;;;;5051413;28;21042;-63
2022/11/07 10:49:57;;;;;;;2.30;1.80;;;15.20;98.00;;;;;;5049781;28;20631;-63
2022/11/07 10:52:25;;;;;;;2.07;1.50;;;15.20;98.00;;;;;;5051580;28;21193;-62
2022/11/07 10:55:06;;;;;;;2.53;1.80;;;15.30;98.00;;;;;;5051850;28;20518;-62
2022/11/07 10:57:35;;;;;;;2.00;1.70;;;15.30;98.00;;;;;;5051148;28;20463;-62
2022/11/07 11:00:06;;;;;;;5.73;1.50;;;15.50;98.00;;;;;;5051653;28;20981;-62
2022/11/07 11:02:45;;;;;;;3.40;1.40;;;15.60;98.00;;;;;;5051668;28;20503;-62
2022/11/07 11:05:30;;;;;;;1.63;1.40;;;15.70;98.00;;;;;;5051232;28;20448;-61
2022/11/07 11:08:08;;;;;;;1.50;1.40;;;15.80;98.00;;;;;;5051100;28;20532;-62
2022/11/07 11:10:39;;;;;;;1.60;1.40;;;15.90;98.00;;;;;;5051349;28;20509;-62
2022/11/07 11:13:22;;;;;;;2.73;1.40;;;16.00;98.00;;;;;;5051538;28;20454;-61
2022/11/07 11:15:49;;;;;;;2.30;1.60;;;16.20;98.00;;;;;;5051422;28;20457;-63
2022/11/07 11:18:18;;;;;;;1.40;1.40;;;16.20;98.00;;;;;;5050858;28;20459;-62
2022/11/07 11:20:54;;;;;;;2.57;1.43;;;16.10;98.00;;;;;;5050760;28;20458;-62
2022/11/07 11:23:26;;;;;;;3.60;1.30;;;16.10;98.00;;;;;;5042325;28;20481;-62
2022/11/07 11:26:01;;;;;;;1.63;1.53;;;16.10;98.00;;;;;;5033590;28;20459;-62
2022/11/07 11:28:34;;;;;;;3.60;2.10;;;16.00;98.00;;;;;;5051113;28;20467;-62
2022/11/07 11:31:06;;;;;;;1.50;1.40;;;16.10;98.00;;;;;;5051096;28;20473;-62
2022/11/07 11:33:41;;;;;;;1.20;1.13;;;16.20;98.00;;;;;;5049980;28;20465;-62
2022/11/07 11:36:14;;;;;;;1.80;1.67;;;16.40;98.00;;;;;;5050208;28;20487;-61
2022/11/07 11:38:42;;;;;;;2.90;1.47;;;16.50;98.00;;;;;;5049880;28;20548;-62
2022/11/07 11:41:17;;;;;;;1.60;1.40;;;16.90;98.00;;;;;;5049911;28;20515;-62
2022/11/07 11:43:53;;;;;;;2.63;1.60;;;17.20;98.00;;;;;;5032276;28;20492;-61
2022/11/07 11:46:27;;;;;;;2.60;1.50;;;17.40;98.00;;;;;;5049615;28;20536;-62
2022/11/07 11:49:04;;;;;;;2.00;1.20;;;17.60;98.00;;;;;;5032399;28;20461;-62
2022/11/07 11:51:40;;;;;;;1.60;1.40;;;17.80;98.00;;;;;;5048591;28;20464;-61
2022/11/07 11:54:10;;;;;;;1.63;1.40;;;18.10;98.00;;;;;;5049606;28;20460;-64
2022/11/07 11:56:50;;;;;;;1.90;1.40;;;18.20;98.00;;;;;;5051677;28;20943;-65
2022/11/07 11:59:53;;;;;;;1.67;1.27;;;18.00;98.00;;;;;;5052254;28;20465;-64
2022/11/07 12:03:06;;;;;;;1.60;1.20;;;17.70;98.00;;;;;;5052375;28;20539;-64
2022/11/07 12:06:18;;;;;;;2.20;1.40;;;17.30;98.00;;;;;;4990473;28;20827;-64
2022/11/07 12:09:06;;;;;;;2.07;1.70;;;17.10;98.00;;;;;;5023016;28;20463;-64
2022/11/07 12:11:43;;;;;;;1.50;1.37;;;17.00;98.00;;;;;;5051782;28;20465;-64
2022/11/07 12:14:46;;;;;;;3.67;1.90;;;16.70;98.00;;;;;;5052181;28;20465;-64
2022/11/07 12:17:24;;;;;;;3.77;1.67;;;16.70;98.00;;;;;;4959767;28;20465;-63
2022/11/07 12:19:58;;;;;;;2.23;1.50;;;16.60;98.00;;;;;;5052116;28;20461;-63
2022/11/07 12:22:39;;;;;;;1.90;1.33;;;16.50;98.00;;;;;;5051940;28;20483;-63
2022/11/07 12:25:13;;;;;;;3.33;1.77;;;16.40;98.00;;;;;;5051349;28;21006;-64
2022/11/07 12:27:48;;;;;;;1.80;1.47;;;16.20;98.00;;;;;;5050662;28;20469;-64
2022/11/07 12:30:21;;;;;;;1.97;1.47;;;16.20;98.00;;;;;;5051903;28;20467;-63
2022/11/07 12:33:01;;;;;;;4.33;1.20;;;16.30;98.00;;;;;;5010861;28;1150628;-64
2022/11/07 12:35:41;;;;;;;1.47;1.20;;;16.40;98.00;;;;;;5051853;28;20457;-62
2022/11/07 12:38:26;;;;;;;2.87;1.77;;;16.40;98.00;;;;;;5051906;28;20664;-63
2022/11/07 12:41:01;;;;;;;2.50;1.40;;;16.30;98.00;;;;;;5051735;28;20802;-62
2022/11/07 12:43:42;;;;;;;1.70;1.40;;;16.20;98.00;;;;;;5051592;28;20472;-62
2022/11/07 12:46:18;;;;;;;1.30;1.30;;;16.20;98.00;;;;;;5051784;28;20460;-62
2022/11/07 12:49:03;;;;;;;1.60;1.40;;;16.10;98.00;;;;;;5051685;28;20453;-62
2022/11/07 12:51:42;;;;;;;1.77;1.47;;;16.10;98.00;;;;;;5051435;28;20469;-63
2022/11/07 12:54:35;;;;;;;1.53;1.40;;;16.10;98.00;;;;;;5051583;28;20457;-62
2022/11/07 12:57:07;;;;;;;5.00;1.70;;;16.20;98.00;;;;;;5051516;28;20465;-63
2022/11/07 12:59:36;;;;;;;1.83;1.57;;;16.20;98.00;;;;;;5051482;28;20442;-63
2022/11/07 13:02:14;;;;;;;1.50;1.40;;;16.30;98.00;;;;;;5051365;28;20468;-62
2022/11/07 13:04:50;;;;;;;1.80;1.30;;;16.30;98.00;;;;;;5051528;28;20526;-63
2022/11/07 13:07:24;;;;;;;1.80;1.50;;;16.30;98.00;;;;;;5051539;28;20469;-62
2022/11/07 13:09:56;;;;;;;1.90;1.33;;;16.40;98.00;;;;;;5051378;28;20464;-63
2022/11/07 13:12:30;;;;;;;1.50;1.33;;;16.60;98.00;;;;;;5051270;28;20817;-62
2022/11/07 13:14:57;;;;;;;2.10;1.50;;;16.60;98.00;;;;;;5051545;28;20450;-62
2022/11/07 13:17:37;;;;;;;1.70;1.40;;;16.70;98.00;;;;;;5051328;28;20461;-63